Terminal Aerodrome Forecast
Issued by NWS Brownsville, TX

Home | Current Version | Previous Version | Text Only | Print | Product List | Glossary On
Versions: 1 2 3 4 5 6 7 8 9 10 11 12 13
000
FTUS44 KBRO 282339
TAFHRL
TAF
KHRL 282339Z 2900/2924 13015G21KT P6SM SCT045
     FM290200 14009KT P6SM FEW025
     FM290900 13004KT P6SM SCT020
     FM291500 15009KT P6SM SCT035=

USA.gov is the U.S. government's official web portal to all federal, state and local government web resources and services.